sensor_id;sensor_type;location;lat;lon;timestamp;temperature;humidity
13440;DHT22;6792;57.698;11.946;2022-08-23T00:02:12;22.60;45.10
13440;DHT22;6792;57.698;11.946;2022-08-23T00:04:42;22.60;45.70
13440;DHT22;6792;57.698;11.946;2022-08-23T00:07:14;22.60;45.70
13440;DHT22;6792;57.698;11.946;2022-08-23T00:09:43;22.50;45.80
13440;DHT22;6792;57.698;11.946;2022-08-23T00:12:15;22.50;45.90
13440;DHT22;6792;57.698;11.946;2022-08-23T00:14:46;22.50;45.40
13440;DHT22;6792;57.698;11.946;2022-08-23T00:17:15;22.50;46.00
13440;DHT22;6792;57.698;11.946;2022-08-23T00:19:45;22.40;46.00
13440;DHT22;6792;57.698;11.946;2022-08-23T00:22:15;22.40;46.10
13440;DHT22;6792;57.698;11.946;2022-08-23T00:24:44;22.40;46.10
13440;DHT22;6792;57.698;11.946;2022-08-23T00:27:14;22.40;45.60
13440;DHT22;6792;57.698;11.946;2022-08-23T00:29:46;22.40;46.20
13440;DHT22;6792;57.698;11.946;2022-08-23T00:32:18;22.40;46.30
13440;DHT22;6792;57.698;11.946;2022-08-23T00:34:48;22.30;45.80
13440;DHT22;6792;57.698;11.946;2022-08-23T00:37:18;22.30;46.40
13440;DHT22;6792;57.698;11.946;2022-08-23T00:39:47;22.30;46.40
13440;DHT22;6792;57.698;11.946;2022-08-23T00:42:25;22.30;46.50
13440;DHT22;6792;57.698;11.946;2022-08-23T00:45:13;22.20;46.50
13440;DHT22;6792;57.698;11.946;2022-08-23T00:48:00;22.20;46.70
13440;DHT22;6792;57.698;11.946;2022-08-23T00:50:33;22.10;47.60
13440;DHT22;6792;57.698;11.946;2022-08-23T00:53:05;22.10;47.00
13440;DHT22;6792;57.698;11.946;2022-08-23T00:55:35;22.10;46.90
13440;DHT22;6792;57.698;11.946;2022-08-23T00:58:04;22.10;46.90
13440;DHT22;6792;57.698;11.946;2022-08-23T01:00:33;22.00;46.40
13440;DHT22;6792;57.698;11.946;2022-08-23T01:03:06;22.10;46.90
13440;DHT22;6792;57.698;11.946;2022-08-23T01:05:42;22.10;47.00
13440;DHT22;6792;57.698;11.946;2022-08-23T01:08:07;22.00;47.00
13440;DHT22;6792;57.698;11.946;2022-08-23T01:10:39;22.00;47.10
13440;DHT22;6792;57.698;11.946;2022-08-23T01:13:13;22.00;47.10
13440;DHT22;6792;57.698;11.946;2022-08-23T01:15:44;22.00;47.20
13440;DHT22;6792;57.698;11.946;2022-08-23T01:18:16;21.90;47.20
13440;DHT22;6792;57.698;11.946;2022-08-23T01:23:32;21.90;46.80
13440;DHT22;6792;57.698;11.946;2022-08-23T01:26:02;21.90;47.30
13440;DHT22;6792;57.698;11.946;2022-08-23T01:28:31;21.80;47.30
13440;DHT22;6792;57.698;11.946;2022-08-23T01:31:01;21.80;47.30
13440;DHT22;6792;57.698;11.946;2022-08-23T01:33:30;21.80;47.30
13440;DHT22;6792;57.698;11.946;2022-08-23T01:36:01;21.80;47.30
13440;DHT22;6792;57.698;11.946;2022-08-23T01:38:30;21.80;47.40
13440;DHT22;6792;57.698;11.946;2022-08-23T01:40:59;21.80;47.40
13440;DHT22;6792;57.698;11.946;2022-08-23T01:43:28;21.80;47.40
13440;DHT22;6792;57.698;11.946;2022-08-23T01:45:58;21.80;47.40
13440;DHT22;6792;57.698;11.946;2022-08-23T01:48:28;21.70;47.40
13440;DHT22;6792;57.698;11.946;2022-08-23T01:50:57;21.70;47.40
13440;DHT22;6792;57.698;11.946;2022-08-23T01:53:26;21.70;47.40
13440;DHT22;6792;57.698;11.946;2022-08-23T01:55:55;21.70;47.40
13440;DHT22;6792;57.698;11.946;2022-08-23T01:58:25;21.60;47.50
13440;DHT22;6792;57.698;11.946;2022-08-23T02:00:54;21.60;47.40
13440;DHT22;6792;57.698;11.946;2022-08-23T02:03:24;21.60;47.50
13440;DHT22;6792;57.698;11.946;2022-08-23T02:05:55;21.60;47.50
13440;DHT22;6792;57.698;11.946;2022-08-23T02:08:24;21.60;48.20
13440;DHT22;6792;57.698;11.946;2022-08-23T02:11:13;21.50;47.60
13440;DHT22;6792;57.698;11.946;2022-08-23T02:13:43;21.40;47.70
13440;DHT22;6792;57.698;11.946;2022-08-23T02:16:12;21.40;47.70
13440;DHT22;6792;57.698;11.946;2022-08-23T02:18:42;21.40;47.70
13440;DHT22;6792;57.698;11.946;2022-08-23T02:21:11;21.40;47.80
13440;DHT22;6792;57.698;11.946;2022-08-23T02:23:40;21.40;47.80
13440;DHT22;6792;57.698;11.946;2022-08-23T02:26:09;21.40;47.80
13440;DHT22;6792;57.698;11.946;2022-08-23T02:28:39;21.40;47.80
13440;DHT22;6792;57.698;11.946;2022-08-23T02:31:08;21.30;47.70
13440;DHT22;6792;57.698;11.946;2022-08-23T02:33:37;21.30;47.80
13440;DHT22;6792;57.698;11.946;2022-08-23T02:36:07;21.30;47.90
13440;DHT22;6792;57.698;11.946;2022-08-23T02:38:36;21.30;47.90
13440;DHT22;6792;57.698;11.946;2022-08-23T02:41:05;21.30;47.90
13440;DHT22;6792;57.698;11.946;2022-08-23T02:43:34;21.30;47.90
13440;DHT22;6792;57.698;11.946;2022-08-23T02:46:04;21.30;47.80
13440;DHT22;6792;57.698;11.946;2022-08-23T02:48:34;21.30;47.90
13440;DHT22;6792;57.698;11.946;2022-08-23T02:51:06;21.20;47.80
13440;DHT22;6792;57.698;11.946;2022-08-23T02:53:36;21.20;47.80
13440;DHT22;6792;57.698;11.946;2022-08-23T02:56:06;21.20;47.80
13440;DHT22;6792;57.698;11.946;2022-08-23T02:58:35;21.20;47.80
13440;DHT22;6792;57.698;11.946;2022-08-23T03:01:05;21.20;47.80
13440;DHT22;6792;57.698;11.946;2022-08-23T03:03:34;21.20;47.80
13440;DHT22;6792;57.698;11.946;2022-08-23T03:06:03;21.10;47.80
13440;DHT22;6792;57.698;11.946;2022-08-23T03:08:32;21.10;47.80
13440;DHT22;6792;57.698;11.946;2022-08-23T03:11:01;21.10;47.90
13440;DHT22;6792;57.698;11.946;2022-08-23T03:13:30;21.10;47.90
13440;DHT22;6792;57.698;11.946;2022-08-23T03:15:59;21.10;47.90
13440;DHT22;6792;57.698;11.946;2022-08-23T03:18:30;21.00;47.80
13440;DHT22;6792;57.698;11.946;2022-08-23T03:20:59;21.00;47.80
13440;DHT22;6792;57.698;11.946;2022-08-23T03:23:29;21.00;47.80
13440;DHT22;6792;57.698;11.946;2022-08-23T03:26:01;21.00;47.90
13440;DHT22;6792;57.698;11.946;2022-08-23T03:28:31;20.90;47.90
13440;DHT22;6792;57.698;11.946;2022-08-23T03:31:01;20.90;47.90
13440;DHT22;6792;57.698;11.946;2022-08-23T03:33:31;20.90;48.00
13440;DHT22;6792;57.698;11.946;2022-08-23T03:36:00;20.80;48.00
13440;DHT22;6792;57.698;11.946;2022-08-23T03:38:30;20.80;48.00
13440;DHT22;6792;57.698;11.946;2022-08-23T03:41:00;20.80;48.00
13440;DHT22;6792;57.698;11.946;2022-08-23T03:43:29;20.80;48.10
13440;DHT22;6792;57.698;11.946;2022-08-23T03:45:58;20.80;48.10
13440;DHT22;6792;57.698;11.946;2022-08-23T03:48:27;20.80;48.10
13440;DHT22;6792;57.698;11.946;2022-08-23T03:50:56;20.70;47.50
13440;DHT22;6792;57.698;11.946;2022-08-23T03:53:26;20.70;48.20
13440;DHT22;6792;57.698;11.946;2022-08-23T03:55:55;20.70;48.10
13440;DHT22;6792;57.698;11.946;2022-08-23T03:58:24;20.70;48.10
13440;DHT22;6792;57.698;11.946;2022-08-23T04:00:55;20.70;48.20
13440;DHT22;6792;57.698;11.946;2022-08-23T04:03:24;20.60;48.20
13440;DHT22;6792;57.698;11.946;2022-08-23T04:05:53;20.60;47.70
13440;DHT22;6792;57.698;11.946;2022-08-23T04:08:22;20.60;48.20
13440;DHT22;6792;57.698;11.946;2022-08-23T04:10:52;20.60;47.70
13440;DHT22;6792;57.698;11.946;2022-08-23T04:13:21;20.60;48.40
13440;DHT22;6792;57.698;11.946;2022-08-23T04:15:53;20.60;48.30
13440;DHT22;6792;57.698;11.946;2022-08-23T04:18:22;20.60;47.80
13440;DHT22;6792;57.698;11.946;2022-08-23T04:20:51;20.50;47.90
13440;DHT22;6792;57.698;11.946;2022-08-23T04:23:20;20.50;47.90
13440;DHT22;6792;57.698;11.946;2022-08-23T04:25:49;20.60;48.50
13440;DHT22;6792;57.698;11.946;2022-08-23T04:28:18;20.50;48.00
13440;DHT22;6792;57.698;11.946;2022-08-23T04:30:47;20.60;48.60
13440;DHT22;6792;57.698;11.946;2022-08-23T04:33:17;20.60;48.70
13440;DHT22;6792;57.698;11.946;2022-08-23T04:35:46;20.60;48.70
13440;DHT22;6792;57.698;11.946;2022-08-23T04:38:15;20.60;48.70
13440;DHT22;6792;57.698;11.946;2022-08-23T04:40:44;20.60;48.70
13440;DHT22;6792;57.698;11.946;2022-08-23T04:43:31;20.60;48.70
13440;DHT22;6792;57.698;11.946;2022-08-23T04:46:00;20.50;48.90
13440;DHT22;6792;57.698;11.946;2022-08-23T04:48:29;20.50;48.90
13440;DHT22;6792;57.698;11.946;2022-08-23T04:50:58;20.50;48.80
13440;DHT22;6792;57.698;11.946;2022-08-23T04:53:28;20.50;48.80
13440;DHT22;6792;57.698;11.946;2022-08-23T04:55:57;20.50;48.80
13440;DHT22;6792;57.698;11.946;2022-08-23T04:58:26;20.60;48.80
13440;DHT22;6792;57.698;11.946;2022-08-23T05:00:56;20.60;48.80
13440;DHT22;6792;57.698;11.946;2022-08-23T05:03:26;20.60;48.80
13440;DHT22;6792;57.698;11.946;2022-08-23T05:05:56;20.60;48.70
13440;DHT22;6792;57.698;11.946;2022-08-23T05:08:26;20.60;48.70
13440;DHT22;6792;57.698;11.946;2022-08-23T05:10:55;20.60;48.70
13440;DHT22;6792;57.698;11.946;2022-08-23T05:13:26;20.60;48.80
13440;DHT22;6792;57.698;11.946;2022-08-23T05:15:55;20.60;48.80
13440;DHT22;6792;57.698;11.946;2022-08-23T05:18:24;20.60;48.80
13440;DHT22;6792;57.698;11.946;2022-08-23T05:20:54;20.60;48.70
13440;DHT22;6792;57.698;11.946;2022-08-23T05:23:25;20.60;48.70
13440;DHT22;6792;57.698;11.946;2022-08-23T05:25:55;20.60;48.70
13440;DHT22;6792;57.698;11.946;2022-08-23T05:28:26;20.60;48.70
13440;DHT22;6792;57.698;11.946;2022-08-23T05:30:59;20.70;48.70
13440;DHT22;6792;57.698;11.946;2022-08-23T05:33:29;20.70;48.20
13440;DHT22;6792;57.698;11.946;2022-08-23T05:35:59;20.70;48.30
13440;DHT22;6792;57.698;11.946;2022-08-23T05:38:28;20.70;48.80
13440;DHT22;6792;57.698;11.946;2022-08-23T05:40:58;20.80;48.90
13440;DHT22;6792;57.698;11.946;2022-08-23T05:43:29;20.70;48.90
13440;DHT22;6792;57.698;11.946;2022-08-23T05:46:07;20.80;49.00
13440;DHT22;6792;57.698;11.946;2022-08-23T05:48:35;20.80;49.10
13440;DHT22;6792;57.698;11.946;2022-08-23T05:51:12;20.80;49.20
13440;DHT22;6792;57.698;11.946;2022-08-23T05:53:42;20.80;49.10
13440;DHT22;6792;57.698;11.946;2022-08-23T05:56:16;20.90;49.10
13440;DHT22;6792;57.698;11.946;2022-08-23T06:01:29;21.00;48.60
13440;DHT22;6792;57.698;11.946;2022-08-23T06:03:59;21.00;49.00
13440;DHT22;6792;57.698;11.946;2022-08-23T06:06:28;21.10;49.00
13440;DHT22;6792;57.698;11.946;2022-08-23T06:08:58;21.10;48.90
13440;DHT22;6792;57.698;11.946;2022-08-23T06:11:29;21.20;48.80
13440;DHT22;6792;57.698;11.946;2022-08-23T06:14:00;21.20;48.70
13440;DHT22;6792;57.698;11.946;2022-08-23T06:16:31;21.30;48.90
13440;DHT22;6792;57.698;11.946;2022-08-23T06:19:01;21.30;48.70
13440;DHT22;6792;57.698;11.946;2022-08-23T06:21:32;21.40;48.60
13440;DHT22;6792;57.698;11.946;2022-08-23T06:24:02;21.40;48.60
13440;DHT22;6792;57.698;11.946;2022-08-23T06:26:32;21.50;48.50
13440;DHT22;6792;57.698;11.946;2022-08-23T06:29:03;21.50;48.40
13440;DHT22;6792;57.698;11.946;2022-08-23T06:31:33;21.60;48.50
13440;DHT22;6792;57.698;11.946;2022-08-23T06:34:18;21.60;48.50
13440;DHT22;6792;57.698;11.946;2022-08-23T06:36:49;21.70;48.50
13440;DHT22;6792;57.698;11.946;2022-08-23T06:39:21;21.70;48.50
13440;DHT22;6792;57.698;11.946;2022-08-23T06:41:51;21.80;48.50
13440;DHT22;6792;57.698;11.946;2022-08-23T06:44:21;21.90;48.50
13440;DHT22;6792;57.698;11.946;2022-08-23T06:46:50;21.90;48.40
13440;DHT22;6792;57.698;11.946;2022-08-23T06:49:18;22.00;48.40
13440;DHT22;6792;57.698;11.946;2022-08-23T06:51:50;22.00;48.30
13440;DHT22;6792;57.698;11.946;2022-08-23T06:54:21;22.00;48.30
13440;DHT22;6792;57.698;11.946;2022-08-23T06:56:51;22.10;48.30
13440;DHT22;6792;57.698;11.946;2022-08-23T06:59:21;22.20;48.20
13440;DHT22;6792;57.698;11.946;2022-08-23T07:01:57;22.20;48.20
13440;DHT22;6792;57.698;11.946;2022-08-23T07:04:29;22.30;48.20
13440;DHT22;6792;57.698;11.946;2022-08-23T07:06:59;22.30;48.10
13440;DHT22;6792;57.698;11.946;2022-08-23T07:09:30;22.40;48.10
13440;DHT22;6792;57.698;11.946;2022-08-23T07:12:00;22.40;48.10
13440;DHT22;6792;57.698;11.946;2022-08-23T07:14:29;22.40;47.90
13440;DHT22;6792;57.698;11.946;2022-08-23T07:17:00;22.50;48.00
13440;DHT22;6792;57.698;11.946;2022-08-23T07:19:32;22.50;47.90
13440;DHT22;6792;57.698;11.946;2022-08-23T07:22:02;22.50;47.70
13440;DHT22;6792;57.698;11.946;2022-08-23T07:24:32;22.60;47.70
13440;DHT22;6792;57.698;11.946;2022-08-23T07:27:02;22.60;47.60
13440;DHT22;6792;57.698;11.946;2022-08-23T07:29:33;22.70;47.50
13440;DHT22;6792;57.698;11.946;2022-08-23T07:32:03;22.70;47.50
13440;DHT22;6792;57.698;11.946;2022-08-23T07:34:33;22.70;47.30
13440;DHT22;6792;57.698;11.946;2022-08-23T07:37:02;22.80;47.30
13440;DHT22;6792;57.698;11.946;2022-08-23T07:39:33;22.80;47.20
13440;DHT22;6792;57.698;11.946;2022-08-23T07:42:03;22.80;47.20
13440;DHT22;6792;57.698;11.946;2022-08-23T07:44:32;22.90;47.30
13440;DHT22;6792;57.698;11.946;2022-08-23T07:47:01;22.90;47.30
13440;DHT22;6792;57.698;11.946;2022-08-23T07:49:30;23.00;47.30
13440;DHT22;6792;57.698;11.946;2022-08-23T07:51:59;23.10;47.30
13440;DHT22;6792;57.698;11.946;2022-08-23T07:54:28;23.10;47.10
13440;DHT22;6792;57.698;11.946;2022-08-23T07:56:57;23.20;47.10
13440;DHT22;6792;57.698;11.946;2022-08-23T07:59:26;23.20;47.00
13440;DHT22;6792;57.698;11.946;2022-08-23T08:01:56;23.30;46.90
13440;DHT22;6792;57.698;11.946;2022-08-23T08:04:26;23.30;46.80
13440;DHT22;6792;57.698;11.946;2022-08-23T08:06:55;23.30;46.70
13440;DHT22;6792;57.698;11.946;2022-08-23T08:09:25;23.30;46.70
13440;DHT22;6792;57.698;11.946;2022-08-23T08:11:56;23.40;46.70
13440;DHT22;6792;57.698;11.946;2022-08-23T08:14:25;23.50;46.70
13440;DHT22;6792;57.698;11.946;2022-08-23T08:16:54;23.60;46.70
13440;DHT22;6792;57.698;11.946;2022-08-23T08:19:24;23.60;46.60
13440;DHT22;6792;57.698;11.946;2022-08-23T08:21:53;23.70;46.50
13440;DHT22;6792;57.698;11.946;2022-08-23T08:24:23;23.80;46.40
13440;DHT22;6792;57.698;11.946;2022-08-23T08:26:52;23.80;46.30
13440;DHT22;6792;57.698;11.946;2022-08-23T08:29:21;23.90;46.20
13440;DHT22;6792;57.698;11.946;2022-08-23T08:31:49;23.90;46.10
13440;DHT22;6792;57.698;11.946;2022-08-23T08:34:18;24.10;46.20
13440;DHT22;6792;57.698;11.946;2022-08-23T08:36:50;24.10;46.10
13440;DHT22;6792;57.698;11.946;2022-08-23T08:39:23;24.20;46.10
13440;DHT22;6792;57.698;11.946;2022-08-23T08:42:02;24.20;45.90
13440;DHT22;6792;57.698;11.946;2022-08-23T08:44:37;24.20;45.90
13440;DHT22;6792;57.698;11.946;2022-08-23T08:47:11;24.30;45.90
13440;DHT22;6792;57.698;11.946;2022-08-23T08:52:24;24.40;45.10
13440;DHT22;6792;57.698;11.946;2022-08-23T08:54:56;24.50;45.60
13440;DHT22;6792;57.698;11.946;2022-08-23T08:57:25;24.50;45.50
13440;DHT22;6792;57.698;11.946;2022-08-23T08:59:58;24.60;45.60
13440;DHT22;6792;57.698;11.946;2022-08-23T09:02:32;24.70;45.40
13440;DHT22;6792;57.698;11.946;2022-08-23T09:05:02;24.70;45.40
13440;DHT22;6792;57.698;11.946;2022-08-23T09:07:37;24.70;45.20
13440;DHT22;6792;57.698;11.946;2022-08-23T09:10:17;24.80;45.10
13440;DHT22;6792;57.698;11.946;2022-08-23T09:12:50;24.80;45.00
13440;DHT22;6792;57.698;11.946;2022-08-23T09:15:25;24.80;45.00
13440;DHT22;6792;57.698;11.946;2022-08-23T09:17:57;24.90;44.90
13440;DHT22;6792;57.698;11.946;2022-08-23T09:20:28;24.90;44.80
13440;DHT22;6792;57.698;11.946;2022-08-23T09:23:03;25.00;44.80
13440;DHT22;6792;57.698;11.946;2022-08-23T09:25:33;25.00;44.70
13440;DHT22;6792;57.698;11.946;2022-08-23T09:28:03;25.00;44.70
13440;DHT22;6792;57.698;11.946;2022-08-23T09:30:54;25.10;44.70
13440;DHT22;6792;57.698;11.946;2022-08-23T09:33:24;25.20;44.50
13440;DHT22;6792;57.698;11.946;2022-08-23T09:36:06;25.20;43.80
13440;DHT22;6792;57.698;11.946;2022-08-23T09:38:35;25.30;44.30
13440;DHT22;6792;57.698;11.946;2022-08-23T09:41:14;25.30;44.20
13440;DHT22;6792;57.698;11.946;2022-08-23T09:43:45;25.30;43.90
13440;DHT22;6792;57.698;11.946;2022-08-23T09:46:23;25.40;43.90
13440;DHT22;6792;57.698;11.946;2022-08-23T09:48:53;25.40;43.80
13440;DHT22;6792;57.698;11.946;2022-08-23T09:51:25;25.50;43.70
13440;DHT22;6792;57.698;11.946;2022-08-23T09:54:06;25.50;43.60
13440;DHT22;6792;57.698;11.946;2022-08-23T09:56:38;25.60;43.50
13440;DHT22;6792;57.698;11.946;2022-08-23T09:59:31;25.70;43.40
13440;DHT22;6792;57.698;11.946;2022-08-23T10:02:01;25.70;43.20
13440;DHT22;6792;57.698;11.946;2022-08-23T10:04:39;25.70;43.20
13440;DHT22;6792;57.698;11.946;2022-08-23T10:07:23;25.70;43.10
13440;DHT22;6792;57.698;11.946;2022-08-23T10:09:53;25.80;43.30
13440;DHT22;6792;57.698;11.946;2022-08-23T10:12:22;25.90;42.00
13440;DHT22;6792;57.698;11.946;2022-08-23T10:14:51;25.90;42.50
13440;DHT22;6792;57.698;11.946;2022-08-23T10:17:31;25.90;42.30
13440;DHT22;6792;57.698;11.946;2022-08-23T10:20:00;26.00;42.20
13440;DHT22;6792;57.698;11.946;2022-08-23T10:22:36;26.00;42.00
13440;DHT22;6792;57.698;11.946;2022-08-23T10:25:06;26.00;41.80
13440;DHT22;6792;57.698;11.946;2022-08-23T10:27:43;26.00;41.70
13440;DHT22;6792;57.698;11.946;2022-08-23T10:30:26;26.10;41.70
13440;DHT22;6792;57.698;11.946;2022-08-23T10:33:00;26.10;41.90
13440;DHT22;6792;57.698;11.946;2022-08-23T10:35:38;26.20;41.80
13440;DHT22;6792;57.698;11.946;2022-08-23T10:44:05;26.30;41.30
13440;DHT22;6792;57.698;11.946;2022-08-23T10:46:39;26.40;41.30
13440;DHT22;6792;57.698;11.946;2022-08-23T10:49:08;26.40;41.20
13440;DHT22;6792;57.698;11.946;2022-08-23T10:51:40;26.50;41.20
13440;DHT22;6792;57.698;11.946;2022-08-23T10:54:12;26.50;41.00
13440;DHT22;6792;57.698;11.946;2022-08-23T10:56:43;26.50;40.80
13440;DHT22;6792;57.698;11.946;2022-08-23T10:59:15;26.60;40.70
13440;DHT22;6792;57.698;11.946;2022-08-23T11:01:49;26.60;40.40
13440;DHT22;6792;57.698;11.946;2022-08-23T11:04:23;26.60;40.40
13440;DHT22;6792;57.698;11.946;2022-08-23T11:06:54;26.60;40.50
13440;DHT22;6792;57.698;11.946;2022-08-23T11:12:32;26.70;39.70
13440;DHT22;6792;57.698;11.946;2022-08-23T11:15:19;26.80;40.50
13440;DHT22;6792;57.698;11.946;2022-08-23T11:18:05;26.80;40.40
13440;DHT22;6792;57.698;11.946;2022-08-23T11:21:06;26.90;40.40
13440;DHT22;6792;57.698;11.946;2022-08-23T11:23:43;27.00;40.40
13440;DHT22;6792;57.698;11.946;2022-08-23T11:29:28;27.10;40.20
13440;DHT22;6792;57.698;11.946;2022-08-23T11:32:02;27.10;40.20
13440;DHT22;6792;57.698;11.946;2022-08-23T11:34:40;27.20;40.10
13440;DHT22;6792;57.698;11.946;2022-08-23T11:37:30;27.30;40.00
13440;DHT22;6792;57.698;11.946;2022-08-23T11:40:09;27.40;39.80
13440;DHT22;6792;57.698;11.946;2022-08-23T11:42:48;27.50;39.20
13440;DHT22;6792;57.698;11.946;2022-08-23T11:45:29;27.60;39.80
13440;DHT22;6792;57.698;11.946;2022-08-23T11:48:34;27.70;39.70
13440;DHT22;6792;57.698;11.946;2022-08-23T11:51:00;27.80;39.50
13440;DHT22;6792;57.698;11.946;2022-08-23T11:54:11;27.80;39.30
13440;DHT22;6792;57.698;11.946;2022-08-23T11:56:40;27.80;39.30
13440;DHT22;6792;57.698;11.946;2022-08-23T11:59:19;27.90;39.40
13440;DHT22;6792;57.698;11.946;2022-08-23T12:01:48;27.90;39.30
13440;DHT22;6792;57.698;11.946;2022-08-23T12:04:32;28.00;39.20
13440;DHT22;6792;57.698;11.946;2022-08-23T12:07:02;28.10;39.00
13440;DHT22;6792;57.698;11.946;2022-08-23T12:09:55;28.20;38.80
13440;DHT22;6792;57.698;11.946;2022-08-23T12:12:34;28.20;38.00
13440;DHT22;6792;57.698;11.946;2022-08-23T12:15:07;28.30;38.60
13440;DHT22;6792;57.698;11.946;2022-08-23T12:18:10;28.40;38.30
13440;DHT22;6792;57.698;11.946;2022-08-23T12:20:41;28.50;38.10
13440;DHT22;6792;57.698;11.946;2022-08-23T12:23:17;28.60;38.20
13440;DHT22;6792;57.698;11.946;2022-08-23T12:26:02;28.70;38.20
13440;DHT22;6792;57.698;11.946;2022-08-23T12:28:40;28.80;37.90
13440;DHT22;6792;57.698;11.946;2022-08-23T12:31:20;29.00;38.00
13440;DHT22;6792;57.698;11.946;2022-08-23T12:33:56;29.20;37.60
13440;DHT22;6792;57.698;11.946;2022-08-23T12:36:29;29.30;36.70
13440;DHT22;6792;57.698;11.946;2022-08-23T12:39:01;29.50;37.20
13440;DHT22;6792;57.698;11.946;2022-08-23T12:41:35;29.70;36.20
13440;DHT22;6792;57.698;11.946;2022-08-23T12:44:06;29.80;36.60
13440;DHT22;6792;57.698;11.946;2022-08-23T12:46:38;29.90;35.60
13440;DHT22;6792;57.698;11.946;2022-08-23T12:49:09;30.10;36.10
13440;DHT22;6792;57.698;11.946;2022-08-23T12:51:47;30.30;35.80
13440;DHT22;6792;57.698;11.946;2022-08-23T12:54:19;30.40;35.40
13440;DHT22;6792;57.698;11.946;2022-08-23T12:56:50;30.50;35.20
13440;DHT22;6792;57.698;11.946;2022-08-23T12:59:39;30.70;35.10
13440;DHT22;6792;57.698;11.946;2022-08-23T13:02:23;30.80;34.90
13440;DHT22;6792;57.698;11.946;2022-08-23T13:04:41;31.00;34.90
13440;DHT22;6792;57.698;11.946;2022-08-23T13:07:14;31.30;34.80
13440;DHT22;6792;57.698;11.946;2022-08-23T13:09:43;32.00;34.60
13440;DHT22;6792;57.698;11.946;2022-08-23T13:12:12;33.10;34.40
13440;DHT22;6792;57.698;11.946;2022-08-23T13:14:45;34.30;33.80
13440;DHT22;6792;57.698;11.946;2022-08-23T13:17:18;35.60;32.90
13440;DHT22;6792;57.698;11.946;2022-08-23T13:19:49;37.00;32.00
13440;DHT22;6792;57.698;11.946;2022-08-23T13:22:24;38.30;30.90
13440;DHT22;6792;57.698;11.946;2022-08-23T13:25:06;39.60;30.00
13440;DHT22;6792;57.698;11.946;2022-08-23T13:27:36;40.70;29.10
13440;DHT22;6792;57.698;11.946;2022-08-23T13:30:21;41.70;28.40
13440;DHT22;6792;57.698;11.946;2022-08-23T13:32:51;42.60;27.70
13440;DHT22;6792;57.698;11.946;2022-08-23T13:35:40;43.50;27.20
13440;DHT22;6792;57.698;11.946;2022-08-23T13:38:14;44.40;26.20
13440;DHT22;6792;57.698;11.946;2022-08-23T13:40:46;45.10;25.50
13440;DHT22;6792;57.698;11.946;2022-08-23T13:43:19;45.60;24.70
13440;DHT22;6792;57.698;11.946;2022-08-23T13:45:50;45.90;24.10
13440;DHT22;6792;57.698;11.946;2022-08-23T13:48:21;46.20;23.60
13440;DHT22;6792;57.698;11.946;2022-08-23T13:50:52;46.40;23.30
13440;DHT22;6792;57.698;11.946;2022-08-23T13:53:21;46.50;22.70
13440;DHT22;6792;57.698;11.946;2022-08-23T13:55:52;46.10;22.00
13440;DHT22;6792;57.698;11.946;2022-08-23T13:58:27;45.20;21.80
13440;DHT22;6792;57.698;11.946;2022-08-23T14:00:57;44.20;21.90
13440;DHT22;6792;57.698;11.946;2022-08-23T14:03:27;43.20;22.20
13440;DHT22;6792;57.698;11.946;2022-08-23T14:05:57;42.20;22.40
13440;DHT22;6792;57.698;11.946;2022-08-23T14:11:07;40.50;23.00
13440;DHT22;6792;57.698;11.946;2022-08-23T14:13:37;39.70;23.40
13440;DHT22;6792;57.698;11.946;2022-08-23T14:16:07;39.00;23.70
13440;DHT22;6792;57.698;11.946;2022-08-23T14:18:37;38.50;24.00
13440;DHT22;6792;57.698;11.946;2022-08-23T14:21:06;37.90;24.40
13440;DHT22;6792;57.698;11.946;2022-08-23T14:23:35;37.40;24.70
13440;DHT22;6792;57.698;11.946;2022-08-23T14:26:04;36.80;24.90
13440;DHT22;6792;57.698;11.946;2022-08-23T14:28:33;36.30;25.20
13440;DHT22;6792;57.698;11.946;2022-08-23T14:31:02;36.00;25.60
13440;DHT22;6792;57.698;11.946;2022-08-23T14:33:31;35.60;25.90
13440;DHT22;6792;57.698;11.946;2022-08-23T14:36:01;35.20;26.20
13440;DHT22;6792;57.698;11.946;2022-08-23T14:38:30;34.90;26.50
13440;DHT22;6792;57.698;11.946;2022-08-23T14:41:01;34.60;26.80
13440;DHT22;6792;57.698;11.946;2022-08-23T14:43:30;34.30;27.00
13440;DHT22;6792;57.698;11.946;2022-08-23T14:45:59;34.00;27.40
13440;DHT22;6792;57.698;11.946;2022-08-23T14:48:29;33.80;27.60
13440;DHT22;6792;57.698;11.946;2022-08-23T14:50:58;33.60;27.90
13440;DHT22;6792;57.698;11.946;2022-08-23T14:53:28;33.40;28.10
13440;DHT22;6792;57.698;11.946;2022-08-23T14:55:58;33.10;28.20
13440;DHT22;6792;57.698;11.946;2022-08-23T14:58:27;32.90;28.40
13440;DHT22;6792;57.698;11.946;2022-08-23T15:00:55;32.70;28.60
13440;DHT22;6792;57.698;11.946;2022-08-23T15:03:26;32.50;28.80
13440;DHT22;6792;57.698;11.946;2022-08-23T15:05:55;32.40;29.10
13440;DHT22;6792;57.698;11.946;2022-08-23T15:08:24;32.20;29.20
13440;DHT22;6792;57.698;11.946;2022-08-23T15:10:53;32.00;29.40
13440;DHT22;6792;57.698;11.946;2022-08-23T15:13:23;31.80;29.50
13440;DHT22;6792;57.698;11.946;2022-08-23T15:15:53;31.70;29.70
13440;DHT22;6792;57.698;11.946;2022-08-23T15:18:22;31.60;29.90
13440;DHT22;6792;57.698;11.946;2022-08-23T15:20:53;31.40;30.00
13440;DHT22;6792;57.698;11.946;2022-08-23T15:23:23;31.30;30.20
13440;DHT22;6792;57.698;11.946;2022-08-23T15:25:52;31.20;30.40
13440;DHT22;6792;57.698;11.946;2022-08-23T15:28:22;31.00;30.60
13440;DHT22;6792;57.698;11.946;2022-08-23T15:30:51;30.90;30.70
13440;DHT22;6792;57.698;11.946;2022-08-23T15:33:20;30.80;31.00
13440;DHT22;6792;57.698;11.946;2022-08-23T15:35:50;30.70;31.20
13440;DHT22;6792;57.698;11.946;2022-08-23T15:38:21;30.60;31.40
13440;DHT22;6792;57.698;11.946;2022-08-23T15:40:51;30.50;31.50
13440;DHT22;6792;57.698;11.946;2022-08-23T15:43:21;30.40;31.60
13440;DHT22;6792;57.698;11.946;2022-08-23T15:45:50;30.30;31.70
13440;DHT22;6792;57.698;11.946;2022-08-23T15:48:22;30.30;31.80
13440;DHT22;6792;57.698;11.946;2022-08-23T15:50:52;30.20;31.80
13440;DHT22;6792;57.698;11.946;2022-08-23T15:53:22;30.10;31.90
13440;DHT22;6792;57.698;11.946;2022-08-23T15:55:51;30.00;32.00
13440;DHT22;6792;57.698;11.946;2022-08-23T15:58:22;29.90;31.90
13440;DHT22;6792;57.698;11.946;2022-08-23T16:00:52;29.80;31.90
13440;DHT22;6792;57.698;11.946;2022-08-23T16:03:21;29.70;32.00
13440;DHT22;6792;57.698;11.946;2022-08-23T16:05:52;29.70;32.10
13440;DHT22;6792;57.698;11.946;2022-08-23T16:08:24;29.70;32.20
13440;DHT22;6792;57.698;11.946;2022-08-23T16:10:54;29.60;32.20
13440;DHT22;6792;57.698;11.946;2022-08-23T16:13:24;29.50;32.20
13440;DHT22;6792;57.698;11.946;2022-08-23T16:15:53;29.50;32.20
13440;DHT22;6792;57.698;11.946;2022-08-23T16:18:23;29.40;32.20
13440;DHT22;6792;57.698;11.946;2022-08-23T16:20:52;29.40;32.30
13440;DHT22;6792;57.698;11.946;2022-08-23T16:23:21;29.30;32.30